Time;durP1;ratioP1;P1;durP2;ratioP2;P2;SDS_P1;SDS_P2;PMS_P1;PMS_P2;Temp;Humidity;BMP_temperature;BMP_pressure;BME280_temperature;BME280_humidity;BME280_pressure;Samples;Min_cycle;Max_cycle;Signal;HPM_P1;HPM_P2
2021/12/30 00:01:14;;;;;;;44.53;6.45;;;9.10;99.90;;;;;;4981581;28;20129;-66
2021/12/30 00:03:40;;;;;;;33.13;6.18;;;9.10;99.90;;;;;;4981449;28;20030;-66
2021/12/30 00:06:07;;;;;;;30.33;6.45;;;9.10;99.90;;;;;;4980936;28;20050;-67
2021/12/30 00:08:34;;;;;;;41.25;7.50;;;9.10;99.90;;;;;;4998131;28;20034;-66
2021/12/30 00:11:00;;;;;;;31.58;6.18;;;9.10;99.90;;;;;;4963970;28;20053;-66
2021/12/30 00:13:27;;;;;;;46.45;7.80;;;;;;;;;;4962662;28;20034;-66
2021/12/30 00:15:53;;;;;;;49.38;7.72;;;9.10;99.90;;;;;;4980076;28;20046;-66
2021/12/30 00:18:19;;;;;;;44.92;7.22;;;9.00;99.90;;;;;;4980210;28;20069;-66
2021/12/30 00:20:45;;;;;;;43.92;7.72;;;8.90;99.90;;;;;;4965466;28;20042;-66
2021/12/30 00:23:11;;;;;;;33.40;6.07;;;9.10;99.90;;;;;;4981263;28;20061;-66
2021/12/30 00:25:40;;;;;;;44.30;7.13;;;9.00;99.90;;;;;;4980297;28;20046;-66
2021/12/30 00:28:09;;;;;;;47.03;7.05;;;9.20;99.90;;;;;;4980536;28;20069;-66
2021/12/30 00:30:35;;;;;;;34.55;6.18;;;;;;;;;;4980861;28;20056;-66
2021/12/30 00:33:01;;;;;;;29.02;5.82;;;8.90;99.90;;;;;;4964231;28;20042;-66
2021/12/30 00:35:27;;;;;;;40.40;7.22;;;9.00;99.90;;;;;;4963919;28;20037;-66
2021/12/30 00:37:53;;;;;;;49.70;7.45;;;;;;;;;;4964129;28;20088;-66
2021/12/30 00:40:20;;;;;;;45.30;7.65;;;8.90;99.90;;;;;;4997016;28;20048;-66
2021/12/30 00:42:46;;;;;;;41.40;7.30;;;;;;;;;;4979237;28;20504;-66
2021/12/30 00:45:11;;;;;;;44.83;8.05;;;8.70;99.90;;;;;;4964004;28;20150;-66
2021/12/30 00:47:37;;;;;;;42.78;7.60;;;8.80;99.90;;;;;;4979455;28;20125;-66
2021/12/30 00:50:03;;;;;;;39.40;5.82;;;8.80;99.90;;;;;;4979861;28;20093;-66
2021/12/30 00:52:29;;;;;;;33.70;5.97;;;8.80;99.90;;;;;;4978189;28;20046;-66
2021/12/30 00:54:54;;;;;;;35.28;5.97;;;8.60;99.90;;;;;;4995173;28;20124;-66
2021/12/30 00:57:20;;;;;;;37.67;6.93;;;;;;;;;;5011910;28;20041;-68
2021/12/30 00:59:46;;;;;;;30.13;6.28;;;8.60;99.90;;;;;;4979544;28;20034;-68
2021/12/30 01:02:12;;;;;;;31.80;7.05;;;;;;;;;;4978406;28;20050;-66
2021/12/30 01:04:37;;;;;;;37.53;6.20;;;8.70;99.90;;;;;;4978870;28;20038;-66
2021/12/30 01:07:03;;;;;;;37.38;6.60;;;8.60;99.90;;;;;;4978759;28;20045;-67
2021/12/30 01:09:29;;;;;;;46.38;9.07;;;8.70;99.90;;;;;;4994928;28;20042;-67
2021/12/30 01:11:56;;;;;;;46.65;7.80;;;8.60;99.90;;;;;;4979315;28;20046;-67
2021/12/30 01:14:25;;;;;;;34.35;6.13;;;8.60;99.90;;;;;;4997452;28;20042;-67
2021/12/30 01:16:55;;;;;;;41.75;7.63;;;8.60;99.90;;;;;;4979300;28;20039;-67
2021/12/30 01:19:42;;;;;;;33.65;6.25;;;8.70;99.90;;;;;;4996358;28;20057;-67
2021/12/30 01:22:18;;;;;;;30.25;5.97;;;8.60;99.90;;;;;;5011364;28;20045;-67
2021/12/30 01:24:44;;;;;;;33.30;6.28;;;8.80;99.90;;;;;;4978992;28;20427;-67
2021/12/30 01:27:10;;;;;;;29.60;5.93;;;;;;;;;;4978745;28;20054;-67
2021/12/30 01:29:36;;;;;;;37.05;7.05;;;8.60;99.90;;;;;;4959859;28;20054;-67
2021/12/30 01:32:02;;;;;;;37.13;7.65;;;8.60;99.90;;;;;;4959565;28;20047;-68
2021/12/30 01:34:28;;;;;;;30.73;6.25;;;8.50;99.90;;;;;;4977229;28;20089;-67
2021/12/30 01:36:55;;;;;;;33.42;6.28;;;8.60;99.90;;;;;;4958825;28;20047;-67
2021/12/30 01:39:22;;;;;;;36.20;6.18;;;8.60;99.90;;;;;;4943205;28;20054;-68
2021/12/30 01:41:49;;;;;;;42.65;6.22;;;8.70;99.90;;;;;;4942489;28;20444;-68
2021/12/30 01:44:15;;;;;;;30.67;5.65;;;8.50;99.90;;;;;;4958527;28;20047;-67
2021/12/30 01:46:44;;;;;;;41.78;6.25;;;8.60;99.90;;;;;;4975209;28;20047;-67
2021/12/30 01:49:12;;;;;;;40.42;8.38;;;8.50;99.90;;;;;;4977591;28;20046;-67
2021/12/30 01:51:38;;;;;;;42.08;7.38;;;8.50;99.90;;;;;;4988203;28;20039;-67
2021/12/30 01:54:05;;;;;;;39.70;6.90;;;8.50;99.90;;;;;;4996833;28;20053;-67
2021/12/30 01:56:31;;;;;;;32.28;6.05;;;;;;;;;;4979657;28;20045;-67
2021/12/30 01:58:58;;;;;;;28.80;5.68;;;8.40;99.90;;;;;;4995461;28;20121;-67
2021/12/30 02:01:24;;;;;;;33.80;5.88;;;8.40;99.90;;;;;;4994900;28;20038;-67
2021/12/30 02:03:50;;;;;;;36.22;6.13;;;8.40;99.90;;;;;;4995105;28;20046;-67
2021/12/30 02:06:16;;;;;;;32.95;5.95;;;8.40;99.90;;;;;;4977724;28;20060;-67
2021/12/30 02:08:42;;;;;;;40.67;7.15;;;8.30;99.90;;;;;;4978591;28;20096;-67
2021/12/30 02:11:07;;;;;;;42.05;6.55;;;8.60;99.90;;;;;;4994740;28;20054;-67
2021/12/30 02:13:33;;;;;;;36.53;6.15;;;8.50;99.90;;;;;;4995240;28;20066;-67
2021/12/30 02:16:02;;;;;;;39.08;7.20;;;8.70;99.90;;;;;;4979142;28;20045;-67
2021/12/30 02:18:29;;;;;;;35.40;7.93;;;8.40;99.90;;;;;;4995332;28;20046;-67
2021/12/30 02:20:58;;;;;;;39.65;8.18;;;8.40;99.90;;;;;;4996344;28;20042;-67
2021/12/30 02:23:33;;;;;;;37.22;7.90;;;8.60;99.90;;;;;;4993619;28;20065;-68
2021/12/30 02:26:05;;;;;;;47.38;8.70;;;8.50;99.90;;;;;;4995137;28;20053;-68
2021/12/30 02:28:34;;;;;;;39.85;7.22;;;8.50;99.90;;;;;;4993599;28;20038;-68
2021/12/30 02:31:02;;;;;;;42.45;8.45;;;8.80;99.90;;;;;;4994851;28;20054;-68
2021/12/30 02:33:28;;;;;;;41.60;8.55;;;;;;;;;;4995268;28;20400;-68
2021/12/30 02:35:55;;;;;;;39.13;8.05;;;8.50;99.90;;;;;;4994723;28;20039;-68
2021/12/30 02:38:22;;;;;;;44.22;8.27;;;8.70;99.90;;;;;;4998062;28;20038;-68
2021/12/30 02:40:50;;;;;;;40.95;8.75;;;9.60;99.90;;;;;;4999272;28;20080;-68
2021/12/30 02:43:18;;;;;;;46.33;8.70;;;8.60;99.90;;;;;;4982009;28;20489;-68
2021/12/30 02:45:45;;;;;;;43.58;9.35;;;8.60;99.90;;;;;;4998892;28;20369;-68
2021/12/30 02:48:20;;;;;;;50.83;10.10;;;8.70;99.90;;;;;;4997881;28;20043;-68
2021/12/30 02:50:48;;;;;;;43.45;11.05;;;8.90;99.90;;;;;;4981377;28;20039;-68
2021/12/30 02:53:15;;;;;;;47.38;9.85;;;;;;;;;;4998877;28;20034;-68
2021/12/30 02:55:42;;;;;;;43.90;9.77;;;8.70;99.90;;;;;;4998912;28;20049;-68
2021/12/30 02:58:08;;;;;;;40.97;10.70;;;;;;;;;;4980858;28;20035;-68
2021/12/30 03:00:35;;;;;;;42.08;10.23;;;8.80;99.90;;;;;;4997448;28;20045;-69
2021/12/30 03:03:00;;;;;;;43.40;10.70;;;8.80;99.90;;;;;;4999017;28;20042;-68
2021/12/30 03:05:26;;;;;;;50.60;11.18;;;8.80;99.90;;;;;;4998293;28;20545;-68
2021/12/30 03:07:52;;;;;;;50.33;11.00;;;8.90;99.90;;;;;;4997980;28;20116;-69
2021/12/30 03:10:21;;;;;;;42.60;10.75;;;8.90;99.90;;;;;;4997505;28;20053;-69
2021/12/30 03:12:55;;;;;;;47.80;12.00;;;9.10;99.90;;;;;;4998212;28;20084;-68
2021/12/30 03:15:22;;;;;;;45.47;11.25;;;;;;;;;;4998070;28;20057;-68
2021/12/30 03:17:47;;;;;;;41.38;11.60;;;9.10;99.90;;;;;;4997922;28;20518;-68
2021/12/30 03:20:13;;;;;;;49.53;11.75;;;9.10;99.90;;;;;;4997872;28;20042;-68
2021/12/30 03:22:41;;;;;;;45.45;11.55;;;9.20;99.90;;;;;;4996984;28;20046;-69
2021/12/30 03:25:08;;;;;;;58.60;12.00;;;9.20;99.90;;;;;;4996702;28;20046;-68
2021/12/30 03:27:34;;;;;;;53.35;11.00;;;9.20;99.90;;;;;;4996713;28;20065;-67
2021/12/30 03:30:03;;;;;;;47.92;10.90;;;9.10;99.90;;;;;;4980801;28;20389;-68
2021/12/30 03:32:29;;;;;;;47.22;10.55;;;;;;;;;;4997215;28;20046;-68
2021/12/30 03:34:55;;;;;;;52.33;10.77;;;9.40;99.90;;;;;;4980477;28;20496;-68
2021/12/30 03:37:20;;;;;;;55.53;11.57;;;9.30;99.90;;;;;;4996953;28;20030;-68
2021/12/30 03:39:48;;;;;;;47.75;10.63;;;9.30;99.90;;;;;;4980861;28;20034;-68
2021/12/30 03:42:14;;;;;;;53.50;11.30;;;9.30;99.90;;;;;;4998850;28;20112;-68
2021/12/30 03:44:40;;;;;;;50.50;10.95;;;;;;;;;;4997893;28;20050;-67
2021/12/30 03:47:07;;;;;;;59.78;10.57;;;9.20;99.90;;;;;;4996356;28;20085;-67
2021/12/30 03:49:32;;;;;;;53.08;10.10;;;9.40;99.90;;;;;;4997915;28;20054;-67
2021/12/30 03:51:58;;;;;;;49.00;9.95;;;9.50;99.90;;;;;;4996607;28;20042;-67
2021/12/30 03:54:24;;;;;;;55.33;11.57;;;9.50;99.90;;;;;;4997725;28;20038;-68
2021/12/30 03:56:50;;;;;;;47.38;10.15;;;;;;;;;;4998200;28;20070;-67
2021/12/30 03:59:16;;;;;;;60.65;11.43;;;9.80;99.90;;;;;;4996722;28;20125;-68
2021/12/30 04:01:41;;;;;;;62.63;13.02;;;9.90;99.90;;;;;;4980723;28;20046;-67
2021/12/30 04:04:07;;;;;;;56.17;11.95;;;9.90;99.90;;;;;;4997781;28;20047;-67
2021/12/30 04:06:33;;;;;;;63.78;11.43;;;9.90;99.90;;;;;;4997048;28;20053;-66
2021/12/30 04:08:59;;;;;;;57.70;11.15;;;10.20;99.90;;;;;;4980385;28;20038;-67
2021/12/30 04:11:28;;;;;;;65.03;11.05;;;10.10;99.90;;;;;;4998268;28;20060;-67
2021/12/30 04:13:54;;;;;;;53.67;12.82;;;10.20;99.90;;;;;;4996567;28;20042;-67
2021/12/30 04:16:20;;;;;;;70.43;13.23;;;10.30;99.90;;;;;;4996985;28;20049;-67
2021/12/30 04:18:48;;;;;;;57.72;13.25;;;10.30;99.90;;;;;;4996781;28;20042;-67
2021/12/30 04:21:16;;;;;;;57.03;13.93;;;10.40;99.90;;;;;;4997466;28;20038;-67
2021/12/30 04:23:43;;;;;;;70.07;14.05;;;10.50;99.90;;;;;;4998025;28;20506;-68
2021/12/30 04:26:08;;;;;;;53.70;12.75;;;10.30;99.90;;;;;;4997653;28;20488;-66
2021/12/30 04:28:34;;;;;;;50.25;11.82;;;;;;;;;;4997998;28;20034;-68
2021/12/30 04:31:00;;;;;;;71.65;12.02;;;10.30;99.90;;;;;;4981239;28;20049;-67
2021/12/30 04:33:25;;;;;;;53.55;13.68;;;10.20;99.90;;;;;;4996741;28;20053;-68
2021/12/30 04:35:56;;;;;;;53.47;13.38;;;;;;;;;;4997508;28;20044;-68
2021/12/30 04:38:22;;;;;;;47.85;10.68;;;;;;;;;;4979485;28;20440;-68
2021/12/30 04:40:48;;;;;;;50.17;12.40;;;10.30;99.90;;;;;;4995434;28;20412;-68
2021/12/30 04:43:13;;;;;;;50.55;10.77;;;10.40;99.90;;;;;;4995605;28;20046;-68
2021/12/30 04:45:39;;;;;;;42.85;11.30;;;10.40;99.90;;;;;;4997233;28;20077;-68
2021/12/30 04:48:05;;;;;;;49.65;12.13;;;10.30;99.90;;;;;;4997382;28;20049;-68
2021/12/30 04:50:30;;;;;;;43.65;11.52;;;10.40;99.90;;;;;;4995108;28;20046;-66
2021/12/30 04:52:56;;;;;;;40.42;11.18;;;10.50;99.90;;;;;;4995351;28;20049;-66
2021/12/30 04:55:22;;;;;;;47.55;13.10;;;10.40;99.90;;;;;;4995861;28;20068;-68
2021/12/30 04:57:47;;;;;;;42.17;12.60;;;10.40;99.90;;;;;;4997354;28;20034;-68
2021/12/30 05:00:14;;;;;;;34.00;12.73;;;10.70;99.90;;;;;;4978569;28;20073;-67
2021/12/30 05:05:24;;;;;;;37.22;12.02;;;10.50;99.90;;;;;;4995408;28;20081;-68
2021/12/30 05:07:50;;;;;;;40.80;11.43;;;10.60;99.90;;;;;;4995315;28;20381;-68
2021/12/30 05:10:16;;;;;;;32.78;12.82;;;;;;;;;;4995442;28;20455;-67
2021/12/30 05:12:42;;;;;;;38.90;12.07;;;10.70;99.90;;;;;;4996878;28;20058;-68
2021/12/30 05:15:08;;;;;;;31.65;12.00;;;10.70;99.90;;;;;;4995222;28;20045;-67
2021/12/30 05:17:35;;;;;;;37.63;12.45;;;10.80;99.90;;;;;;4996741;28;20554;-70
2021/12/30 05:20:01;;;;;;;35.08;13.27;;;10.60;99.90;;;;;;4995775;28;20042;-68
2021/12/30 05:22:26;;;;;;;41.20;13.25;;;10.80;99.90;;;;;;4996009;28;20045;-68
2021/12/30 05:24:52;;;;;;;46.92;14.77;;;10.70;99.90;;;;;;4995234;28;20129;-68
2021/12/30 05:27:19;;;;;;;54.05;18.70;;;10.80;99.90;;;;;;4977910;28;20053;-68
2021/12/30 05:29:46;;;;;;;61.50;19.80;;;10.80;99.90;;;;;;4995663;28;20073;-68
2021/12/30 05:32:12;;;;;;;57.78;18.52;;;10.80;99.90;;;;;;4994935;28;20069;-68
2021/12/30 05:34:37;;;;;;;58.40;19.58;;;10.80;99.90;;;;;;4983553;28;20047;-68
2021/12/30 05:37:03;;;;;;;66.20;20.23;;;;;;;;;;4988803;28;20038;-68
2021/12/30 05:39:30;;;;;;;56.97;18.50;;;10.90;99.90;;;;;;4976083;28;20069;-68
2021/12/30 05:41:56;;;;;;;57.35;19.15;;;10.80;99.90;;;;;;4975678;28;20061;-68
2021/12/30 05:44:22;;;;;;;52.80;18.48;;;10.80;99.90;;;;;;4992771;28;20425;-68
2021/12/30 05:46:47;;;;;;;64.50;19.13;;;10.90;99.90;;;;;;4992638;28;20447;-68
2021/12/30 05:49:13;;;;;;;73.57;21.55;;;10.90;99.90;;;;;;4991198;28;20057;-68
2021/12/30 05:51:41;;;;;;;56.10;19.30;;;10.90;99.90;;;;;;4973161;28;21475;-68
2021/12/30 05:54:07;;;;;;;64.68;20.10;;;;;;;;;;4974455;28;20510;-68
2021/12/30 05:56:33;;;;;;;58.05;20.17;;;;;;;;;;4992204;28;20416;-68
2021/12/30 05:58:59;;;;;;;60.60;20.15;;;11.00;99.90;;;;;;4971223;28;20042;-68
2021/12/30 06:01:24;;;;;;;75.13;21.80;;;11.00;99.90;;;;;;4982887;28;20106;-68
2021/12/30 06:03:50;;;;;;;67.40;20.33;;;11.00;99.90;;;;;;4955695;28;20038;-68
2021/12/30 06:06:15;;;;;;;66.07;20.42;;;11.00;99.90;;;;;;4972699;28;20125;-68
2021/12/30 06:08:41;;;;;;;89.05;24.05;;;11.00;99.90;;;;;;4972055;28;20051;-68
2021/12/30 06:11:06;;;;;;;69.97;21.92;;;11.10;99.90;;;;;;4975087;28;20046;-68
2021/12/30 06:13:32;;;;;;;72.35;21.95;;;;;;;;;;4972220;28;20512;-68
2021/12/30 06:15:58;;;;;;;79.05;23.05;;;11.20;99.90;;;;;;4958508;28;20035;-68
2021/12/30 06:18:24;;;;;;;73.55;22.70;;;11.20;99.90;;;;;;4958002;28;20065;-68
2021/12/30 06:20:49;;;;;;;70.82;21.20;;;11.10;99.90;;;;;;4991358;28;20487;-68
2021/12/30 06:23:15;;;;;;;66.30;21.70;;;11.10;99.90;;;;;;4991856;28;20038;-68
2021/12/30 06:25:40;;;;;;;60.67;19.85;;;11.10;99.90;;;;;;4986698;28;20034;-68
2021/12/30 06:28:06;;;;;;;49.95;18.15;;;11.20;99.90;;;;;;4970492;28;20038;-68
2021/12/30 06:30:32;;;;;;;57.88;19.55;;;;;;;;;;4980640;28;20092;-66
2021/12/30 06:32:58;;;;;;;62.10;18.83;;;;;;;;;;4985240;28;20042;-65
2021/12/30 06:35:24;;;;;;;58.40;18.95;;;11.20;99.90;;;;;;4962444;28;20038;-66
2021/12/30 06:37:49;;;;;;;55.20;18.63;;;11.40;99.90;;;;;;4972670;28;20046;-66
2021/12/30 06:40:15;;;;;;;47.10;17.45;;;11.30;99.90;;;;;;4974684;28;20046;-67
2021/12/30 06:42:42;;;;;;;51.55;17.02;;;11.40;99.90;;;;;;4971745;28;20059;-65
2021/12/30 06:45:09;;;;;;;35.58;14.35;;;11.30;99.90;;;;;;4969551;28;20057;-65
2021/12/30 06:47:35;;;;;;;42.55;15.13;;;11.30;99.90;;;;;;4959453;28;20078;-65
2021/12/30 06:50:02;;;;;;;33.08;13.57;;;11.40;99.90;;;;;;4973015;28;20101;-65
2021/12/30 06:52:29;;;;;;;33.38;13.60;;;11.60;99.90;;;;;;4964160;28;20412;-65
2021/12/30 06:54:55;;;;;;;30.00;12.90;;;11.40;99.90;;;;;;4971549;28;20043;-66
2021/12/30 06:57:21;;;;;;;31.30;11.88;;;;;;;;;;4978281;28;20142;-65
2021/12/30 06:59:46;;;;;;;29.65;11.10;;;11.50;99.90;;;;;;4972852;28;20412;-66
2021/12/30 07:02:13;;;;;;;27.13;10.82;;;11.50;99.90;;;;;;4955462;28;20039;-65
2021/12/30 07:04:39;;;;;;;23.55;10.27;;;11.50;99.90;;;;;;4972761;28;20537;-65
2021/12/30 07:07:05;;;;;;;25.00;10.18;;;11.40;99.90;;;;;;4972868;28;20042;-66
2021/12/30 07:09:31;;;;;;;22.55;9.50;;;11.40;99.90;;;;;;4972802;28;20039;-66
2021/12/30 07:11:56;;;;;;;17.13;7.75;;;11.50;99.90;;;;;;4972678;28;20051;-66
2021/12/30 07:14:23;;;;;;;19.33;6.95;;;11.50;99.90;;;;;;4979668;28;20038;-66
2021/12/30 07:16:49;;;;;;;13.07;5.78;;;11.50;99.90;;;;;;4964724;28;20514;-66
2021/12/30 07:19:15;;;;;;;11.13;5.25;;;;;;;;;;4976296;28;20031;-66
2021/12/30 07:21:42;;;;;;;10.77;4.07;;;11.50;99.90;;;;;;4960877;28;20043;-66
2021/12/30 07:24:08;;;;;;;11.60;4.60;;;11.60;99.90;;;;;;4961368;28;20053;-66
2021/12/30 07:26:34;;;;;;;8.55;3.65;;;11.60;99.90;;;;;;4994953;28;20046;-66
2021/12/30 07:29:00;;;;;;;8.85;4.13;;;;;;;;;;4980346;28;20038;-66
2021/12/30 07:31:26;;;;;;;7.78;3.97;;;;;;;;;;4975175;28;20039;-70
2021/12/30 07:33:52;;;;;;;7.18;4.18;;;;;;;;;;4981945;28;20034;-67
2021/12/30 07:36:18;;;;;;;6.80;3.75;;;11.60;99.90;;;;;;4991888;28;20101;-68
2021/12/30 07:38:43;;;;;;;9.23;4.32;;;11.70;99.90;;;;;;4971315;28;20041;-69
2021/12/30 07:41:09;;;;;;;6.82;3.75;;;;;;;;;;4974006;28;20587;-68
2021/12/30 07:43:35;;;;;;;6.43;4.07;;;;;;;;;;4992550;28;20357;-68
2021/12/30 07:46:01;;;;;;;9.57;4.85;;;11.70;99.90;;;;;;4991110;28;20050;-68
2021/12/30 07:48:27;;;;;;;8.73;4.72;;;11.80;99.90;;;;;;4992078;28;20448;-68
2021/12/30 07:50:53;;;;;;;8.65;4.43;;;11.70;99.90;;;;;;4992390;28;20041;-68
2021/12/30 07:53:20;;;;;;;11.88;5.35;;;11.70;99.90;;;;;;4973543;28;20903;-68
2021/12/30 07:55:46;;;;;;;10.95;5.10;;;11.80;99.90;;;;;;4988072;28;20079;-68
2021/12/30 07:58:11;;;;;;;12.18;5.63;;;11.70;99.90;;;;;;4961965;28;20077;-68
2021/12/30 08:00:37;;;;;;;14.13;5.88;;;11.70;99.90;;;;;;4964180;28;20035;-67
2021/12/30 08:03:03;;;;;;;11.85;5.55;;;;;;;;;;4971695;28;20042;-67
2021/12/30 08:05:29;;;;;;;11.35;5.90;;;;;;;;;;4992358;28;20508;-67
2021/12/30 08:07:55;;;;;;;10.75;5.80;;;11.60;99.90;;;;;;4973779;28;20042;-68
2021/12/30 08:10:22;;;;;;;12.85;5.45;;;;;;;;;;4988201;28;20066;-68
2021/12/30 08:12:54;;;;;;;12.40;6.35;;;11.90;99.90;;;;;;4986731;28;20055;-67
2021/12/30 08:15:20;;;;;;;9.57;4.93;;;12.10;99.90;;;;;;4985352;28;20041;-67
2021/12/30 08:17:47;;;;;;;12.50;5.53;;;12.10;99.90;;;;;;4987159;28;20053;-68
2021/12/30 08:20:14;;;;;;;14.70;6.07;;;11.90;99.90;;;;;;4984780;28;20112;-67
2021/12/30 08:22:41;;;;;;;13.25;6.35;;;;;;;;;;4981416;28;20440;-67
2021/12/30 08:25:09;;;;;;;14.35;6.82;;;12.20;99.90;;;;;;4980795;28;20042;-66
2021/12/30 08:27:35;;;;;;;19.75;7.15;;;;;;;;;;4980249;28;20062;-67
2021/12/30 08:30:01;;;;;;;13.95;6.88;;;;;;;;;;4983775;28;20061;-67
2021/12/30 08:32:27;;;;;;;20.00;6.95;;;;;;;;;;4979445;28;20461;-67
2021/12/30 08:34:53;;;;;;;20.98;5.95;;;;;;;;;;4964731;28;20041;-66
2021/12/30 08:37:18;;;;;;;18.48;6.13;;;12.10;99.90;;;;;;4993380;28;20046;-67
2021/12/30 08:39:45;;;;;;;13.57;5.18;;;;;;;;;;4950034;28;20043;-66
2021/12/30 08:42:25;;;;;;;15.73;5.85;;;14.20;99.90;;;;;;4957345;28;20066;-67
2021/12/30 08:44:52;;;;;;;16.90;5.97;;;12.20;99.90;;;;;;4967405;28;20420;-67
2021/12/30 08:47:18;;;;;;;15.52;4.95;;;;;;;;;;4990855;28;20052;-67
2021/12/30 08:49:46;;;;;;;15.27;5.15;;;12.20;99.90;;;;;;4951223;28;20544;-66
2021/12/30 08:52:16;;;;;;;11.07;4.75;;;12.30;99.90;;;;;;4977367;28;20424;-65
2021/12/30 08:54:43;;;;;;;13.13;4.47;;;12.20;99.90;;;;;;4970807;28;20055;-66
2021/12/30 08:57:09;;;;;;;12.60;5.22;;;;;;;;;;4980336;28;20398;-66
2021/12/30 08:59:35;;;;;;;13.95;4.50;;;;;;;;;;4954920;28;20492;-66
2021/12/30 09:02:05;;;;;;;16.25;4.13;;;12.30;99.90;;;;;;4977812;28;20042;-66
2021/12/30 09:04:31;;;;;;;11.30;4.38;;;12.20;99.90;;;;;;4961181;28;20085;-66
2021/12/30 09:06:57;;;;;;;14.32;4.50;;;12.40;99.90;;;;;;4979648;28;20122;-66
2021/12/30 09:09:23;;;;;;;11.77;4.40;;;12.30;99.90;;;;;;4990294;28;20050;-66
2021/12/30 09:11:49;;;;;;;13.85;4.97;;;;;;;;;;4958894;28;20097;-67
2021/12/30 09:14:15;;;;;;;11.43;4.60;;;;;;;;;;4951646;28;20046;-66
2021/12/30 09:16:41;;;;;;;13.43;4.55;;;12.40;99.90;;;;;;4962797;28;20484;-66
2021/12/30 09:19:07;;;;;;;10.15;4.22;;;12.30;99.90;;;;;;4963750;28;20118;-65
2021/12/30 09:21:33;;;;;;;13.05;4.40;;;;;;;;;;4971984;28;20176;-65
2021/12/30 09:23:58;;;;;;;13.55;4.45;;;12.30;99.90;;;;;;4954420;28;20081;-65
2021/12/30 09:26:25;;;;;;;20.65;5.82;;;12.40;99.90;;;;;;4973185;28;20061;-65
2021/12/30 09:28:50;;;;;;;13.82;5.72;;;12.30;99.90;;;;;;4954514;28;20039;-66
2021/12/30 09:31:16;;;;;;;13.82;6.07;;;;;;;;;;4947819;28;20073;-67
2021/12/30 09:33:42;;;;;;;13.55;5.15;;;;;;;;;;4972092;28;20138;-67
2021/12/30 09:36:08;;;;;;;14.43;5.47;;;12.50;99.90;;;;;;4984648;28;20069;-68
2021/12/30 09:38:33;;;;;;;15.95;5.20;;;12.40;99.90;;;;;;4999215;28;20081;-67
2021/12/30 09:40:59;;;;;;;18.83;5.32;;;12.40;99.90;;;;;;4964663;28;20054;-68
2021/12/30 09:43:25;;;;;;;15.15;4.85;;;;;;;;;;4984667;28;20046;-67
2021/12/30 09:45:51;;;;;;;11.27;3.45;;;;;;;;;;4979184;28;20085;-68
2021/12/30 09:48:17;;;;;;;14.07;4.50;;;;;;;;;;4953664;28;20050;-67
2021/12/30 09:50:54;;;;;;;13.63;3.97;;;12.40;99.90;;;;;;4973467;28;20512;-66
2021/12/30 09:53:22;;;;;;;13.68;3.40;;;12.20;99.90;;;;;;4969856;28;20413;-66
2021/12/30 09:55:50;;;;;;;16.83;3.63;;;12.20;99.90;;;;;;4958722;28;20062;-66
2021/12/30 09:58:15;;;;;;;20.08;3.65;;;12.40;99.90;;;;;;4968664;28;20550;-66
2021/12/30 10:00:42;;;;;;;14.63;3.45;;;12.50;99.90;;;;;;4954746;28;20050;-66
2021/12/30 10:03:08;;;;;;;14.68;3.38;;;12.30;99.90;;;;;;4965076;28;20046;-66
2021/12/30 10:05:36;;;;;;;15.00;4.65;;;12.40;99.90;;;;;;4962726;28;20072;-66
2021/12/30 10:08:25;;;;;;;14.18;4.10;;;12.30;99.90;;;;;;4966224;28;20074;-67
2021/12/30 10:10:56;;;;;;;13.85;3.83;;;12.30;99.90;;;;;;4971709;28;20061;-66
2021/12/30 10:13:29;;;;;;;17.48;3.88;;;12.40;99.90;;;;;;4956658;28;20524;-65
2021/12/30 10:16:03;;;;;;;14.30;3.38;;;12.50;99.90;;;;;;4978372;28;20046;-68
2021/12/30 10:18:42;;;;;;;23.52;5.05;;;12.40;99.90;;;;;;4957433;28;20042;-66
2021/12/30 10:21:23;;;;;;;11.02;4.30;;;12.30;99.90;;;;;;4978401;28;20519;-66
2021/12/30 10:23:52;;;;;;;11.15;3.67;;;12.30;99.90;;;;;;4982491;28;20030;-66
2021/12/30 10:26:18;;;;;;;19.20;4.93;;;12.30;99.90;;;;;;4985934;28;20041;-67
2021/12/30 10:28:44;;;;;;;21.88;3.97;;;12.20;99.90;;;;;;4966638;28;20064;-67
2021/12/30 10:31:13;;;;;;;22.30;5.03;;;12.40;99.90;;;;;;4967009;28;20087;-65
2021/12/30 10:33:55;;;;;;;17.92;4.43;;;12.20;99.90;;;;;;4980240;28;20407;-73
2021/12/30 10:36:45;;;;;;;22.63;5.50;;;12.30;99.90;;;;;;4965065;28;20046;-69
2021/12/30 10:39:31;;;;;;;21.45;4.70;;;12.50;99.90;;;;;;4946221;28;20500;-69
2021/12/30 10:42:05;;;;;;;21.60;4.95;;;12.30;99.90;;;;;;4974491;28;20046;-66
2021/12/30 10:44:52;;;;;;;32.95;5.97;;;12.30;99.90;;;;;;4956353;28;20051;-70
2021/12/30 10:47:20;;;;;;;30.17;6.35;;;12.40;99.90;;;;;;4974708;28;20050;-69
2021/12/30 10:49:55;;;;;;;32.65;6.60;;;12.40;99.90;;;;;;4965739;28;20533;-69
2021/12/30 10:52:21;;;;;;;23.63;4.88;;;;;;;;;;4970651;28;20565;-70
2021/12/30 10:54:47;;;;;;;31.25;6.18;;;;;;;;;;4958288;28;20035;-70
2021/12/30 10:57:13;;;;;;;31.33;6.38;;;12.40;99.90;;;;;;4958001;28;20492;-69
2021/12/30 10:59:43;;;;;;;30.15;5.30;;;12.60;99.90;;;;;;4973408;28;20077;-66
2021/12/30 11:02:09;;;;;;;38.20;7.10;;;;;;;;;;4990450;28;20042;-67
2021/12/30 11:04:37;;;;;;;31.25;6.95;;;12.40;99.90;;;;;;4987538;28;20050;-65
2021/12/30 11:07:05;;;;;;;28.88;5.78;;;11.60;99.90;;;;;;4984441;28;20042;-65
2021/12/30 11:09:31;;;;;;;32.05;5.30;;;;;;;;;;4952331;28;20035;-64
2021/12/30 11:12:00;;;;;;;28.23;5.85;;;12.40;99.90;;;;;;4956280;28;20073;-65
2021/12/30 11:14:29;;;;;;;29.83;5.15;;;12.50;99.90;;;;;;4959293;28;20121;-65
2021/12/30 11:16:59;;;;;;;30.05;6.70;;;;;;;;;;4956239;28;20161;-67
2021/12/30 11:19:27;;;;;;;24.13;6.13;;;12.20;99.90;;;;;;4967073;28;20089;-67
2021/12/30 11:21:53;;;;;;;30.13;5.63;;;12.50;99.90;;;;;;4972472;28;20101;-66
2021/12/30 11:24:20;;;;;;;31.40;5.35;;;12.40;99.90;;;;;;4979246;28;20031;-65
2021/12/30 11:26:46;;;;;;;32.20;5.25;;;;;;;;;;4952724;28;20063;-68
2021/12/30 11:29:12;;;;;;;29.23;5.53;;;;;;;;;;4961894;28;20072;-67
2021/12/30 11:31:38;;;;;;;30.80;6.78;;;;;;;;;;4965659;28;20046;-68
2021/12/30 11:34:04;;;;;;;32.20;5.88;;;12.50;99.90;;;;;;4986179;28;20042;-66
2021/12/30 11:36:30;;;;;;;35.28;5.97;;;;;;;;;;4987508;28;20038;-67
2021/12/30 11:38:57;;;;;;;26.20;6.55;;;12.50;99.90;;;;;;4970851;28;20046;-68
2021/12/30 11:41:26;;;;;;;48.45;7.28;;;12.60;99.90;;;;;;4970322;28;20074;-67
2021/12/30 11:43:51;;;;;;;33.72;7.43;;;12.40;99.90;;;;;;4953408;28;20050;-67
2021/12/30 11:46:43;;;;;;;36.25;5.97;;;12.40;99.90;;;;;;4971378;28;20115;-67
2021/12/30 11:49:11;;;;;;;29.65;5.15;;;12.50;99.90;;;;;;4976010;28;20451;-67
2021/12/30 11:51:55;;;;;;;23.92;5.38;;;12.50;99.90;;;;;;4983461;28;20046;-65
2021/12/30 11:54:40;;;;;;;30.63;5.85;;;12.60;99.90;;;;;;4973792;28;20133;-66
2021/12/30 11:57:36;;;;;;;33.22;7.22;;;12.30;99.90;;;;;;4973709;28;20051;-66
2021/12/30 12:00:20;;;;;;;;;;;12.60;99.90;;;;;;4967502;28;20072;-67
2021/12/30 12:02:46;;;;;;;26.08;5.40;;;;;;;;;;4957859;28;20392;-68
2021/12/30 12:05:43;;;;;;;30.60;6.40;;;12.60;99.90;;;;;;4973362;28;20118;-66
2021/12/30 12:08:13;;;;;;;21.40;4.45;;;12.60;99.90;;;;;;4956016;28;20074;-66
2021/12/30 12:10:40;;;;;;;20.20;4.90;;;;;;;;;;4955657;28;20508;-69
2021/12/30 12:13:30;;;;;;;32.28;6.15;;;12.70;99.90;;;;;;4978946;28;20456;-68
2021/12/30 12:15:56;;;;;;;31.02;6.18;;;;;;;;;;4971842;28;20452;-68
2021/12/30 12:18:23;;;;;;;25.50;4.50;;;;;;;;;;4974684;28;20089;-68
2021/12/30 12:21:04;;;;;;;21.13;4.88;;;12.70;99.90;;;;;;4976951;28;20081;-68
2021/12/30 12:23:33;;;;;;;23.45;5.28;;;12.70;99.90;;;;;;4965713;28;20097;-70
2021/12/30 12:26:05;;;;;;;13.73;4.40;;;12.70;99.90;;;;;;4975914;28;20057;-67
2021/12/30 12:28:31;;;;;;;22.70;5.38;;;12.70;99.90;;;;;;4991959;28;20145;-67
2021/12/30 12:30:57;;;;;;;27.17;6.32;;;;;;;;;;4988462;28;20543;-67
2021/12/30 12:33:26;;;;;;;33.53;5.55;;;12.70;99.90;;;;;;4992238;28;20092;-70
2021/12/30 12:35:52;;;;;;;34.53;6.35;;;;;;;;;;4954518;28;20052;-66
2021/12/30 12:38:47;;;;;;;24.80;5.85;;;12.70;99.90;;;;;;4989965;28;20039;-66
2021/12/30 12:41:29;;;;;;;32.30;6.30;;;12.60;99.90;;;;;;4958511;28;20051;-66
2021/12/30 12:43:58;;;;;;;31.90;5.97;;;12.90;99.90;;;;;;4989903;28;20472;-66
2021/12/30 12:46:46;;;;;;;28.50;5.50;;;12.70;99.90;;;;;;4986274;28;20512;-66
2021/12/30 12:49:14;;;;;;;29.88;6.72;;;12.70;99.90;;;;;;4984326;28;20034;-67
2021/12/30 12:51:55;;;;;;;28.45;4.78;;;12.80;99.90;;;;;;4974543;28;20046;-67
2021/12/30 12:54:44;;;;;;;32.72;6.40;;;12.70;99.90;;;;;;4990911;28;20108;-67
2021/12/30 12:57:16;;;;;;;30.00;4.97;;;12.50;99.90;;;;;;4970211;28;20035;-66
2021/12/30 12:59:44;;;;;;;21.85;4.90;;;12.70;99.90;;;;;;4966211;28;20053;-66
2021/12/30 13:02:12;;;;;;;27.92;5.88;;;12.70;99.90;;;;;;4962390;28;20154;-66
2021/12/30 13:04:38;;;;;;;22.85;4.30;;;12.70;99.90;;;;;;4961094;28;20158;-66